Time;durP1;ratioP1;P1;durP2;ratioP2;P2;SDS_P1;SDS_P2;PMS_P1;PMS_P2;Temp;Humidity;BMP_temperature;BMP_pressure;BME280_temperature;BME280_humidity;BME280_pressure;Samples;Min_cycle;Max_cycle;Signal;HPM_P1;HPM_P2
2020/12/27 00:07:52;;;;;;;5.10;3.33;;;;;;;18.20;37.23;100498.06;31102682;28;20293;-62
2020/12/27 00:22:53;;;;;;;7.20;5.43;;;;;;;13.78;31.60;100464.44;31098061;28;20300;-57
2020/12/27 00:37:54;;;;;;;7.15;3.75;;;;;;;15.32;36.91;100452.78;31125719;28;20038;-56
2020/12/27 00:52:55;;;;;;;8.73;3.40;;;;;;;16.41;35.48;100442.69;31115878;28;20028;-56
2020/12/27 01:07:56;;;;;;;4.60;3.05;;;;;;;16.85;35.72;100406.81;31122281;28;20042;-52
2020/12/27 01:22:57;;;;;;;4.60;3.00;;;;;;;16.98;35.76;100369.09;31120388;28;20046;-56
2020/12/27 01:37:58;;;;;;;5.50;3.17;;;;;;;17.02;36.13;100344.22;31149689;28;20048;-60
2020/12/27 01:53:00;;;;;;;3.87;2.67;;;;;;;16.98;36.26;100306.91;31240680;28;20275;-54
2020/12/27 02:08:01;;;;;;;3.67;2.30;;;;;;;16.93;36.45;100277.59;31239027;28;20300;-58
2020/12/27 02:23:02;;;;;;;4.25;2.55;;;;;;;16.92;36.72;100249.66;31237835;28;20388;-60
2020/12/27 02:38:03;;;;;;;3.33;2.50;;;;;;;16.87;36.59;100210.66;31206680;28;20034;-57
2020/12/27 02:53:04;;;;;;;3.80;2.50;;;;;;;16.86;37.18;100179.28;31114305;28;20427;-57
2020/12/27 03:08:05;;;;;;;3.83;2.63;;;;;;;16.81;37.33;100131.63;31096418;28;20297;-57
2020/12/27 03:23:06;;;;;;;3.67;2.37;;;;;;;16.76;37.47;100109.19;31130416;28;20046;-52
2020/12/27 03:38:07;;;;;;;4.33;2.17;;;;;;;16.72;37.64;100088.59;31164734;28;20303;-56
2020/12/27 03:53:08;;;;;;;3.92;2.10;;;;;;;16.66;37.99;100060.25;31269889;28;20710;-55
2020/12/27 04:08:09;;;;;;;3.38;2.20;;;;;;;16.59;38.01;100052.09;31267942;28;20117;-55
2020/12/27 04:23:10;;;;;;;4.13;2.30;;;;;;;16.50;38.09;100001.25;31252533;28;20029;-59
2020/12/27 04:38:11;;;;;;;2.92;2.00;;;;;;;16.48;38.44;99968.22;31218592;28;20040;-57
2020/12/27 04:53:12;;;;;;;3.45;2.10;;;;;;;16.46;38.59;99933.44;31125407;28;20040;-55
2020/12/27 05:08:14;;;;;;;3.60;1.92;;;;;;;16.39;38.79;99920.03;31122651;28;20046;-57
2020/12/27 05:23:15;;;;;;;3.05;2.00;;;;;;;16.33;38.82;99910.91;31118731;28;20049;-60
2020/12/27 05:38:16;;;;;;;3.70;2.00;;;;;;;16.26;38.68;99869.59;31148554;28;20030;-59
2020/12/27 05:53:20;;;;;;;3.20;2.00;;;;;;;16.22;38.80;99831.53;31240692;28;20278;-59
2020/12/27 06:08:33;;;;;;;3.30;1.83;;;;;;;16.17;39.33;99789.13;31239509;28;20357;-58
2020/12/27 06:23:35;;;;;;;3.33;2.00;;;;;;;16.09;39.03;99732.16;31239470;28;20029;-59
2020/12/27 06:38:36;;;;;;;3.05;2.00;;;;;;;16.00;38.92;99698.91;31205498;28;20088;-59
2020/12/27 06:53:37;;;;;;;2.90;1.83;;;;;;;15.99;39.01;99666.63;31128724;28;20040;-57
2020/12/27 07:08:42;;;;;;;3.90;2.15;;;;;;;15.93;39.04;99637.50;31137610;28;20644;-58
2020/12/27 07:23:46;;;;;;;4.63;1.90;;;;;;;15.86;39.13;99630.19;31051983;28;20026;-55
2020/12/27 07:39:00;;;;;;;5.15;2.10;;;;;;;15.83;39.12;99613.94;31088982;28;20033;-57
2020/12/27 07:54:04;;;;;;;3.45;2.03;;;;;;;15.79;38.93;99583.72;31270866;28;20037;-60
2020/12/27 08:09:09;;;;;;;3.38;1.80;;;;;;;15.77;38.94;99578.63;31206541;28;20045;-60
2020/12/27 08:24:13;;;;;;;4.20;1.90;;;;;;;15.79;38.46;99563.59;31136424;28;20443;-58
2020/12/27 08:39:34;;;;;;;3.20;1.85;;;;;;;15.36;38.86;99556.91;31113598;28;20030;-59
2020/12/27 08:54:35;;;;;;;3.33;1.83;;;;;;;15.70;38.74;99552.13;31112117;28;20376;-60
2020/12/27 09:09:36;;;;;;;3.72;1.75;;;;;;;15.92;39.41;99560.69;31109771;28;20518;-60
2020/12/27 09:24:37;;;;;;;2.58;1.55;;;;;;;16.00;39.35;99555.56;31059423;28;20042;-61
2020/12/27 09:39:38;;;;;;;3.17;1.58;;;;;;;16.10;39.45;99530.19;31082037;28;20030;-61
2020/12/27 09:54:40;;;;;;;3.60;1.53;;;;;;;16.24;39.04;99494.81;31108527;28;20032;-57
2020/12/27 10:09:41;;;;;;;2.72;1.42;;;;;;;16.71;37.35;99454.56;31108978;28;20769;-57
2020/12/27 10:24:42;;;;;;;3.10;1.70;;;;;;;17.35;36.27;99440.44;31100949;28;20040;-60
2020/12/27 10:39:43;;;;;;;3.42;1.60;;;;;;;17.84;34.44;99405.84;31066712;28;20091;-59
2020/12/27 10:54:44;;;;;;;3.30;2.00;;;;;;;17.99;34.39;99353.53;31099921;28;20033;-57
2020/12/27 11:09:45;;;;;;;4.07;1.90;;;;;;;18.09;35.03;99341.06;31095484;28;21763;-56
2020/12/27 11:24:46;;;;;;;3.20;1.97;;;;;;;18.14;35.12;99311.66;31080975;28;20278;-61
2020/12/27 11:39:47;;;;;;;2.90;1.70;;;;;;;18.16;35.49;99244.78;31121096;28;20312;-59
2020/12/27 11:54:48;;;;;;;3.60;2.23;;;;;;;18.19;35.03;99204.19;31124601;28;20289;-62
2020/12/27 12:09:49;;;;;;;4.67;2.40;;;;;;;18.26;35.23;99176.25;31110371;28;20297;-59
2020/12/27 12:24:50;;;;;;;5.30;3.22;;;;;;;18.24;34.72;99132.72;31078796;28;20359;-59
2020/12/27 12:39:51;;;;;;;5.87;2.80;;;;;;;18.17;35.60;99101.81;31116888;28;20029;-60
2020/12/27 12:54:52;;;;;;;8.43;3.13;;;;;;;18.17;35.77;99037.88;31112740;28;20283;-60
2020/12/27 13:09:53;;;;;;;10.73;2.90;;;;;;;18.19;32.84;99017.50;31091879;28;20301;-60
2020/12/27 13:24:54;;;;;;;7.47;2.13;;;;;;;18.12;30.88;98977.06;31105083;28;20388;-58
2020/12/27 13:39:55;;;;;;;4.60;2.50;;;;;;;18.09;29.64;98935.34;31114279;28;20033;-59
2020/12/27 13:54:56;;;;;;;7.87;3.00;;;;;;;18.40;29.84;98927.53;31104509;28;20643;-59
2020/12/27 14:09:57;;;;;;;4.67;3.10;;;;;;;18.53;29.38;98890.13;31111744;28;20308;-59
2020/12/27 14:24:58;;;;;;;5.60;3.70;;;;;;;18.49;28.95;98855.47;31112863;28;20829;-60
2020/12/27 14:39:59;;;;;;;6.20;3.17;;;;;;;17.19;30.19;98825.94;31112890;28;20029;-60
2020/12/27 14:55:00;;;;;;;6.27;4.17;;;;;;;17.97;28.95;98824.47;31100659;28;20657;-60
2020/12/27 15:10:03;;;;;;;5.07;3.57;;;;;;;18.31;28.78;98781.25;31125765;28;20293;-59
2020/12/27 15:25:04;;;;;;;6.65;4.53;;;;;;;18.50;28.64;98756.31;31133350;28;20797;-60
2020/12/27 15:40:05;;;;;;;6.97;4.63;;;;;;;18.61;29.02;98737.47;31131113;28;20042;-60
2020/12/27 15:55:06;;;;;;;5.23;3.97;;;;;;;18.71;29.17;98695.94;31140440;28;20109;-58
2020/12/27 16:10:07;;;;;;;7.10;4.80;;;;;;;18.76;29.19;98664.66;31100905;28;20292;-58
2020/12/27 16:25:08;;;;;;;7.18;4.68;;;;;;;18.80;29.02;98620.38;31102712;28;20293;-55
2020/12/27 16:40:09;;;;;;;6.83;5.23;;;;;;;18.90;29.25;98588.53;31105415;28;20305;-59
2020/12/27 16:55:10;;;;;;;9.40;5.23;;;;;;;17.46;29.06;98559.50;31118478;28;20284;-56
2020/12/27 17:10:11;;;;;;;8.33;5.87;;;;;;;18.20;29.69;98517.72;31086327;28;20308;-59
2020/12/27 17:25:12;;;;;;;8.03;6.17;;;;;;;18.56;28.94;98479.38;31104062;28;20296;-60
2020/12/27 17:40:13;;;;;;;8.48;6.13;;;;;;;18.78;29.26;98454.78;31123377;28;20355;-62
2020/12/27 17:55:14;;;;;;;8.82;6.38;;;;;;;18.81;29.82;98450.97;31099086;28;20040;-62
2020/12/27 18:10:15;;;;;;;7.63;5.80;;;;;;;18.83;29.77;98402.41;31112643;28;20052;-61
2020/12/27 18:25:20;;;;;;;7.63;5.40;;;;;;;18.89;29.76;98400.84;31115348;28;20305;-62
2020/12/27 18:40:21;;;;;;;6.85;5.07;;;;;;;18.96;28.42;98380.66;31082303;28;20298;-61
2020/12/27 18:55:24;;;;;;;8.93;5.60;;;;;;;19.02;28.08;98358.84;31121671;28;20381;-61
2020/12/27 19:10:25;;;;;;;6.43;4.60;;;;;;;19.02;27.40;98316.72;31117829;28;20833;-61
2020/12/27 19:25:26;;;;;;;9.70;7.03;;;;;;;18.68;26.58;98298.16;31133359;28;20042;-58
2020/12/27 19:40:27;;;;;;;9.73;6.47;;;;;;;18.92;28.20;98278.56;31114889;28;20308;-61
2020/12/27 19:55:28;;;;;;;8.90;6.00;;;;;;;19.12;28.83;98258.47;31127655;28;20032;-59
2020/12/27 20:10:29;;;;;;;9.53;6.30;;;;;;;18.92;27.76;98249.59;31117489;28;20300;-59
2020/12/27 20:25:30;;;;;;;9.40;5.80;;;;;;;19.00;28.11;98228.41;31104086;28;20308;-60
2020/12/27 20:40:31;;;;;;;7.97;5.57;;;;;;;19.07;28.79;98231.09;31117686;28;20319;-62
2020/12/27 20:55:32;;;;;;;8.27;5.05;;;;;;;19.17;29.16;98213.13;31110459;28;20624;-61
2020/12/27 21:10:33;;;;;;;6.40;4.63;;;;;;;19.22;30.01;98174.69;31118181;28;20511;-60
2020/12/27 21:25:34;;;;;;;6.27;4.53;;;;;;;19.23;29.43;98170.22;31110333;28;20315;-57
2020/12/27 21:40:41;;;;;;;7.50;4.72;;;;;;;19.15;25.88;98180.91;31532762;27;20386;-61
2020/12/27 21:55:42;;;;;;;8.10;4.47;;;;;;;18.73;28.15;98166.84;31217708;28;20450;-58
2020/12/27 22:10:43;;;;;;;7.20;4.90;;;;;;;16.93;28.87;98143.88;31216831;28;20047;-60
2020/12/27 22:25:44;;;;;;;6.37;4.23;;;;;;;17.77;29.23;98128.56;31227043;28;20316;-57
2020/12/27 22:40:45;;;;;;;6.38;4.20;;;;;;;18.12;29.71;98146.31;31206068;28;20363;-57
2020/12/27 22:55:46;;;;;;;7.10;4.23;;;;;;;18.14;29.60;98121.47;31190894;28;20051;-59
2020/12/27 23:10:48;;;;;;;6.30;4.13;;;;;;;18.34;30.85;98113.75;31249077;28;20280;-57
2020/12/27 23:25:49;;;;;;;5.80;4.25;;;;;;;18.27;30.76;98120.75;31250852;28;20291;-58
2020/12/27 23:40:53;;;;;;;7.50;4.13;;;;;;;18.01;33.00;98097.69;31247378;28;20498;-61
2020/12/27 23:55:54;;;;;;;6.00;3.88;;;;;;;17.76;32.32;98100.66;31252320;28;20762;-60
